KAC125 OPIS-VQPR
Flight info
| Callsign | KAC125 |
|---|---|
| Flight time | N/A |
| Altitude | 37000 |
| Route | INDEK L509 SULOM M890 LKN G598 SMR G336 KTM B345 TUMLI G348 SUBSU SUBSU1 |
| Aircraft | B738/M-SDE2E3FGHIRWXY/LB1 |
Departure
| Time | 2026-05-09 04:47 |
|---|---|
| Airport | Islamabad International Airport (OPIS) |
Arrival
| Time | N/A |
|---|---|
| Airport | Paro International Airport (VQPR) |
| Time | Latitude | Longitude | Altitude | Speed | Heading |
|---|---|---|---|---|---|
| 2026-05-09 04:09 | 33.55452 | 72.83258 | 1772 ft | 0 kts | 355° |
| 2026-05-09 04:30 | 33.55440 | 72.83259 | 1772 ft | 4 kts | 355° |
| 2026-05-09 04:31 | 33.55413 | 72.83261 | 1769 ft | 3 kts | 355° |
| 2026-05-09 04:31 | 33.55391 | 72.83264 | 1770 ft | 4 kts | 342° |
| 2026-05-09 04:31 | 33.55368 | 72.83279 | 1771 ft | 4 kts | 315° |
| 2026-05-09 04:31 | 33.55354 | 72.83299 | 1771 ft | 1 kts | 299° |
| 2026-05-09 04:32 | 33.55352 | 72.83303 | 1769 ft | 0 kts | 299° |
| 2026-05-09 04:37 | 33.55352 | 72.83293 | 1769 ft | 3 kts | 259° |
| 2026-05-09 04:37 | 33.55337 | 72.83262 | 1769 ft | 5 kts | 239° |
| 2026-05-09 04:37 | 33.55320 | 72.83230 | 1769 ft | 5 kts | 237° |
| 2026-05-09 04:37 | 33.55313 | 72.83217 | 1769 ft | 0 kts | 236° |
| 2026-05-09 04:40 | 33.55311 | 72.83214 | 1772 ft | 4 kts | 236° |
| 2026-05-09 04:40 | 33.55259 | 72.83122 | 1770 ft | 21 kts | 236° |
| 2026-05-09 04:41 | 33.55175 | 72.82973 | 1769 ft | 21 kts | 236° |
| 2026-05-09 04:41 | 33.55161 | 72.82806 | 1767 ft | 21 kts | 280° |
| 2026-05-09 04:41 | 33.55187 | 72.82637 | 1767 ft | 20 kts | 281° |
| 2026-05-09 04:41 | 33.55211 | 72.82475 | 1769 ft | 20 kts | 280° |
| 2026-05-09 04:42 | 33.55236 | 72.82316 | 1768 ft | 19 kts | 281° |
| 2026-05-09 04:42 | 33.55259 | 72.82164 | 1767 ft | 18 kts | 280° |
| 2026-05-09 04:42 | 33.55282 | 72.82016 | 1771 ft | 18 kts | 280° |
| 2026-05-09 04:42 | 33.55304 | 72.81873 | 1766 ft | 17 kts | 280° |
| 2026-05-09 04:43 | 33.55325 | 72.81736 | 1766 ft | 16 kts | 280° |
| 2026-05-09 04:43 | 33.55345 | 72.81603 | 1766 ft | 16 kts | 280° |
| 2026-05-09 04:43 | 33.55364 | 72.81476 | 1766 ft | 15 kts | 280° |
| 2026-05-09 04:43 | 33.55382 | 72.81354 | 1770 ft | 15 kts | 280° |
| 2026-05-09 04:44 | 33.55399 | 72.81236 | 1768 ft | 14 kts | 280° |
| 2026-05-09 04:44 | 33.55416 | 72.81125 | 1768 ft | 13 kts | 280° |
| 2026-05-09 04:44 | 33.55431 | 72.81017 | 1768 ft | 13 kts | 280° |
| 2026-05-09 04:44 | 33.55446 | 72.80913 | 1769 ft | 13 kts | 280° |
| 2026-05-09 04:45 | 33.55461 | 72.80811 | 1769 ft | 12 kts | 279° |
| 2026-05-09 04:45 | 33.55473 | 72.80713 | 1768 ft | 8 kts | 265° |
| 2026-05-09 04:45 | 33.55457 | 72.80702 | 1766 ft | 9 kts | 201° |
| 2026-05-09 04:45 | 33.55370 | 72.80680 | 1761 ft | 15 kts | 192° |
| 2026-05-09 04:46 | 33.55261 | 72.80655 | 1757 ft | 16 kts | 189° |
| 2026-05-09 04:46 | 33.55149 | 72.80632 | 1750 ft | 17 kts | 185° |
| 2026-05-09 04:46 | 33.55093 | 72.80736 | 1753 ft | 16 kts | 102° |
| 2026-05-09 04:46 | 33.55063 | 72.80925 | 1749 ft | 52 kts | 100° |
| 2026-05-09 04:47 | 33.54943 | 72.81694 | 1759 ft | 133 kts | 101° |
| 2026-05-09 04:47 | 33.54727 | 72.83033 | 1896 ft | 189 kts | 101° |
| 2026-05-09 04:47 | 33.54457 | 72.84634 | 2691 ft | 209 kts | 101° |
| 2026-05-09 04:47 | 33.54196 | 72.86327 | 3721 ft | 206 kts | 101° |
| 2026-05-09 04:48 | 33.53927 | 72.88099 | 4194 ft | 224 kts | 101° |
| 2026-05-09 04:48 | 33.53640 | 72.89958 | 4777 ft | 232 kts | 101° |
| 2026-05-09 04:48 | 33.53095 | 72.91850 | 5154 ft | 256 kts | 127° |
| 2026-05-09 04:48 | 33.51624 | 72.93154 | 5548 ft | 273 kts | 163° |
| 2026-05-09 04:49 | 33.49718 | 72.93318 | 6253 ft | 279 kts | 190° |
| 2026-05-09 04:49 | 33.47870 | 72.92695 | 6775 ft | 282 kts | 202° |
| 2026-05-09 04:49 | 33.46041 | 72.91800 | 6993 ft | 285 kts | 204° |
| 2026-05-09 04:49 | 33.44191 | 72.90863 | 6998 ft | 288 kts | 204° |
| 2026-05-09 04:50 | 33.42351 | 72.89967 | 7009 ft | 287 kts | 202° |
| 2026-05-09 04:50 | 33.40485 | 72.89093 | 7006 ft | 287 kts | 202° |
| 2026-05-09 04:50 | 33.38619 | 72.88232 | 7013 ft | 287 kts | 202° |
| 2026-05-09 04:50 | 33.36743 | 72.87375 | 7003 ft | 287 kts | 202° |
| 2026-05-09 04:51 | 33.34809 | 72.86784 | 7000 ft | 290 kts | 181° |
| 2026-05-09 04:51 | 33.32793 | 72.86894 | 7452 ft | 296 kts | 177° |
| 2026-05-09 04:51 | 33.30730 | 72.87046 | 8308 ft | 297 kts | 177° |
| 2026-05-09 04:51 | 33.28679 | 72.87191 | 9088 ft | 300 kts | 178° |
| 2026-05-09 04:52 | 33.26574 | 72.87329 | 9823 ft | 305 kts | 178° |
| 2026-05-09 04:52 | 33.24417 | 72.87463 | 10425 ft | 315 kts | 178° |
| 2026-05-09 04:52 | 33.22160 | 72.87600 | 10593 ft | 340 kts | 178° |
| 2026-05-09 04:52 | 33.19718 | 72.87853 | 10753 ft | 362 kts | 167° |
| 2026-05-09 04:53 | 33.17413 | 72.89190 | 11088 ft | 375 kts | 140° |
| 2026-05-09 04:53 | 33.15771 | 72.91556 | 11641 ft | 378 kts | 116° |
| 2026-05-09 04:53 | 33.15027 | 72.94542 | 12337 ft | 375 kts | 92° |
| 2026-05-09 04:53 | 33.15280 | 72.97627 | 13030 ft | 372 kts | 76° |
| 2026-05-09 04:54 | 33.15500 | 73.00681 | 13617 ft | 381 kts | 96° |
| 2026-05-09 04:54 | 33.14619 | 73.03678 | 14239 ft | 387 kts | 118° |
| 2026-05-09 04:54 | 33.13187 | 73.06420 | 14871 ft | 390 kts | 121° |
| 2026-05-09 04:54 | 33.11762 | 73.09212 | 15451 ft | 394 kts | 118° |
| 2026-05-09 04:55 | 33.10439 | 73.12047 | 16030 ft | 396 kts | 116° |
| 2026-05-09 04:55 | 33.09155 | 73.14945 | 16622 ft | 399 kts | 116° |
| 2026-05-09 04:55 | 33.07848 | 73.17917 | 17204 ft | 402 kts | 119° |
| 2026-05-09 04:55 | 33.06039 | 73.20440 | 17687 ft | 410 kts | 141° |
| 2026-05-09 04:56 | 33.03528 | 73.22077 | 18259 ft | 414 kts | 160° |
| 2026-05-09 04:56 | 33.00694 | 73.22782 | 18801 ft | 418 kts | 171° |
| 2026-05-09 04:56 | 32.97800 | 73.23230 | 19233 ft | 424 kts | 172° |
| 2026-05-09 04:56 | 32.94838 | 73.23661 | 19665 ft | 429 kts | 172° |
| 2026-05-09 04:57 | 32.91884 | 73.24105 | 20131 ft | 432 kts | 172° |
| 2026-05-09 04:57 | 32.88884 | 73.24580 | 20574 ft | 436 kts | 172° |
| 2026-05-09 04:57 | 32.85893 | 73.25070 | 20993 ft | 440 kts | 171° |
| 2026-05-09 04:57 | 32.82831 | 73.25580 | 21408 ft | 444 kts | 171° |
| 2026-05-09 04:58 | 32.79753 | 73.26093 | 21813 ft | 448 kts | 171° |
| 2026-05-09 04:58 | 32.76708 | 73.26970 | 22188 ft | 450 kts | 155° |
| 2026-05-09 04:58 | 32.74051 | 73.28853 | 22584 ft | 449 kts | 140° |
| 2026-05-09 04:58 | 32.71583 | 73.31168 | 23006 ft | 451 kts | 139° |
| 2026-05-09 04:59 | 32.69144 | 73.33495 | 23341 ft | 455 kts | 139° |
| 2026-05-09 04:59 | 32.66647 | 73.35879 | 23702 ft | 459 kts | 139° |
| 2026-05-09 04:59 | 32.64168 | 73.38230 | 24076 ft | 461 kts | 139° |
| 2026-05-09 04:59 | 32.61635 | 73.40614 | 24426 ft | 464 kts | 139° |
| 2026-05-09 05:00 | 32.59111 | 73.42974 | 24779 ft | 467 kts | 139° |
| 2026-05-09 05:00 | 32.56538 | 73.45368 | 25094 ft | 470 kts | 139° |
| 2026-05-09 05:00 | 32.54827 | 73.46957 | 25313 ft | 472 kts | 139° |
| 2026-05-09 05:00 | 32.51379 | 73.50152 | 25757 ft | 475 kts | 139° |
| 2026-05-09 05:01 | 32.48751 | 73.52584 | 26057 ft | 478 kts | 139° |
| 2026-05-09 05:01 | 32.47007 | 73.54198 | 26264 ft | 480 kts | 139° |
| 2026-05-09 05:01 | 32.44358 | 73.56648 | 26575 ft | 482 kts | 139° |
| 2026-05-09 05:01 | 32.40829 | 73.59909 | 26980 ft | 485 kts | 139° |
| 2026-05-09 05:02 | 32.39063 | 73.61540 | 27171 ft | 487 kts | 139° |
| 2026-05-09 05:02 | 32.36361 | 73.64034 | 27449 ft | 489 kts | 139° |
| 2026-05-09 05:02 | 32.33693 | 73.66496 | 27730 ft | 491 kts | 139° |
| 2026-05-09 05:02 | 32.30103 | 73.69805 | 28093 ft | 494 kts | 139° |
| 2026-05-09 05:03 | 32.28295 | 73.71470 | 28266 ft | 495 kts | 139° |
| 2026-05-09 05:03 | 32.25558 | 73.73989 | 28515 ft | 498 kts | 138° |
| 2026-05-09 05:03 | 32.22831 | 73.76497 | 28752 ft | 500 kts | 138° |
| 2026-05-09 05:03 | 32.20071 | 73.79034 | 29012 ft | 502 kts | 138° |
| 2026-05-09 05:04 | 32.17333 | 73.81548 | 29294 ft | 503 kts | 138° |
| 2026-05-09 05:04 | 32.14560 | 73.84091 | 29627 ft | 502 kts | 138° |
| 2026-05-09 05:04 | 32.11812 | 73.86608 | 29993 ft | 501 kts | 138° |
| 2026-05-09 05:04 | 32.09051 | 73.89136 | 30373 ft | 500 kts | 138° |
| 2026-05-09 05:05 | 32.06293 | 73.91660 | 30664 ft | 501 kts | 138° |
| 2026-05-09 05:05 | 32.03553 | 73.94166 | 30880 ft | 504 kts | 138° |
| 2026-05-09 05:05 | 32.00758 | 73.96721 | 31094 ft | 507 kts | 139° |
| 2026-05-09 05:05 | 31.97989 | 73.99250 | 31341 ft | 508 kts | 139° |
| 2026-05-09 05:06 | 31.95183 | 74.01810 | 31619 ft | 509 kts | 139° |
| 2026-05-09 05:06 | 31.92392 | 74.04354 | 31855 ft | 511 kts | 139° |
| 2026-05-09 05:06 | 31.89559 | 74.06935 | 32086 ft | 513 kts | 139° |
| 2026-05-09 05:06 | 31.86758 | 74.09483 | 32334 ft | 513 kts | 139° |
| 2026-05-09 05:07 | 31.83925 | 74.12056 | 32542 ft | 516 kts | 140° |
| 2026-05-09 05:07 | 31.81068 | 74.14652 | 32785 ft | 517 kts | 140° |
| 2026-05-09 05:07 | 31.78245 | 74.17216 | 33017 ft | 518 kts | 140° |
| 2026-05-09 05:07 | 31.75378 | 74.19817 | 33231 ft | 520 kts | 140° |
| 2026-05-09 05:08 | 31.72510 | 74.22419 | 33449 ft | 521 kts | 140° |
| 2026-05-09 05:08 | 31.69621 | 74.25038 | 33577 ft | 525 kts | 140° |
| 2026-05-09 05:08 | 31.66755 | 74.27632 | 33697 ft | 527 kts | 141° |
| 2026-05-09 05:08 | 31.63833 | 74.30273 | 33835 ft | 530 kts | 141° |
| 2026-05-09 05:09 | 31.60893 | 74.32930 | 34027 ft | 531 kts | 141° |
| 2026-05-09 05:09 | 31.57962 | 74.35575 | 34296 ft | 531 kts | 141° |
| 2026-05-09 05:09 | 31.55063 | 74.38194 | 34468 ft | 533 kts | 141° |
| 2026-05-09 05:09 | 31.52112 | 74.40853 | 34671 ft | 534 kts | 141° |
| 2026-05-09 05:10 | 31.49151 | 74.43522 | 34914 ft | 534 kts | 141° |
| 2026-05-09 05:10 | 31.46238 | 74.46145 | 35130 ft | 534 kts | 141° |
| 2026-05-09 05:10 | 31.43265 | 74.48820 | 35375 ft | 534 kts | 141° |
| 2026-05-09 05:10 | 31.40331 | 74.51453 | 35539 ft | 536 kts | 141° |
| 2026-05-09 05:11 | 31.37535 | 74.54338 | 35675 ft | 534 kts | 129° |
| 2026-05-09 05:11 | 31.35245 | 74.57738 | 35865 ft | 528 kts | 118° |
| 2026-05-09 05:11 | 31.33470 | 74.61408 | 36082 ft | 520 kts | 108° |
| 2026-05-09 05:11 | 31.32235 | 74.65339 | 36241 ft | 511 kts | 98° |
| 2026-05-09 05:12 | 31.31277 | 74.69355 | 36412 ft | 511 kts | 98° |
| 2026-05-09 05:12 | 31.30336 | 74.73387 | 36589 ft | 512 kts | 98° |
| 2026-05-09 05:12 | 31.29403 | 74.77346 | 36872 ft | 510 kts | 98° |
| 2026-05-09 05:13 | 31.27452 | 74.85389 | 36914 ft | 510 kts | 99° |
| 2026-05-09 05:13 | 31.25485 | 74.93253 | 36908 ft | 500 kts | 99° |
| 2026-05-09 05:14 | 31.23528 | 75.01038 | 36916 ft | 499 kts | 99° |
| 2026-05-09 05:14 | 31.21583 | 75.08786 | 36926 ft | 499 kts | 99° |
| 2026-05-09 05:15 | 31.19620 | 75.16581 | 36908 ft | 500 kts | 99° |
| 2026-05-09 05:15 | 31.17662 | 75.24332 | 36935 ft | 500 kts | 99° |
| 2026-05-09 05:16 | 31.15683 | 75.32147 | 36925 ft | 500 kts | 99° |
| 2026-05-09 05:16 | 31.13716 | 75.39892 | 36930 ft | 500 kts | 99° |
| 2026-05-09 05:17 | 31.11726 | 75.47696 | 36921 ft | 500 kts | 100° |
| 2026-05-09 05:17 | 31.09345 | 75.55356 | 36930 ft | 503 kts | 105° |
| 2026-05-09 05:18 | 31.06761 | 75.62935 | 36916 ft | 503 kts | 105° |
| 2026-05-09 05:18 | 31.04193 | 75.70486 | 36918 ft | 502 kts | 104° |
| 2026-05-09 05:19 | 31.01657 | 75.78040 | 36921 ft | 501 kts | 104° |
| 2026-05-09 05:19 | 30.99134 | 75.85585 | 36909 ft | 500 kts | 104° |
| 2026-05-09 05:20 | 30.96607 | 75.93131 | 36919 ft | 499 kts | 104° |
| 2026-05-09 05:20 | 30.94073 | 76.00672 | 36908 ft | 498 kts | 104° |
| 2026-05-09 05:21 | 30.91547 | 76.08168 | 36914 ft | 497 kts | 105° |
| 2026-05-09 05:21 | 30.89021 | 76.15649 | 36917 ft | 496 kts | 105° |
| 2026-05-09 05:22 | 30.86497 | 76.23112 | 36932 ft | 495 kts | 105° |
| 2026-05-09 05:22 | 30.83978 | 76.30537 | 36941 ft | 493 kts | 105° |
| 2026-05-09 05:23 | 30.81472 | 76.37909 | 36952 ft | 492 kts | 105° |
| 2026-05-09 05:23 | 30.78942 | 76.45338 | 36967 ft | 492 kts | 105° |
| 2026-05-09 05:24 | 30.76425 | 76.52709 | 36985 ft | 491 kts | 105° |
| 2026-05-09 05:24 | 30.73901 | 76.60087 | 36984 ft | 492 kts | 106° |
| 2026-05-09 05:25 | 30.71363 | 76.67497 | 36982 ft | 493 kts | 106° |
| 2026-05-09 05:25 | 30.67185 | 76.78435 | 36962 ft | 501 kts | 119° |
| 2026-05-09 05:26 | 30.63000 | 76.84929 | 36964 ft | 504 kts | 124° |
| 2026-05-09 05:26 | 30.58680 | 76.91366 | 36967 ft | 504 kts | 124° |
| 2026-05-09 05:27 | 30.54447 | 76.97799 | 36980 ft | 503 kts | 123° |
| 2026-05-09 05:27 | 30.50219 | 77.04285 | 36993 ft | 502 kts | 123° |
| 2026-05-09 05:28 | 30.46008 | 77.10732 | 36999 ft | 501 kts | 124° |
| 2026-05-09 05:28 | 30.41727 | 77.17082 | 36970 ft | 503 kts | 131° |
| 2026-05-09 05:29 | 30.36287 | 77.22207 | 36978 ft | 505 kts | 149° |
| 2026-05-09 05:29 | 30.30037 | 77.25852 | 36983 ft | 503 kts | 154° |
| 2026-05-09 05:30 | 30.23740 | 77.29396 | 36990 ft | 501 kts | 153° |
| 2026-05-09 05:30 | 30.17554 | 77.32962 | 36992 ft | 499 kts | 153° |
| 2026-05-09 05:31 | 30.11327 | 77.36589 | 36990 ft | 497 kts | 153° |
| 2026-05-09 05:31 | 30.05164 | 77.40170 | 36988 ft | 495 kts | 153° |
| 2026-05-09 05:32 | 29.99063 | 77.43765 | 36985 ft | 494 kts | 149° |
| 2026-05-09 05:32 | 29.93554 | 77.48409 | 36993 ft | 493 kts | 140° |
| 2026-05-09 05:33 | 29.88199 | 77.53329 | 36996 ft | 492 kts | 140° |
| 2026-05-09 05:33 | 29.82797 | 77.58251 | 36999 ft | 493 kts | 141° |
| 2026-05-09 05:34 | 29.77396 | 77.63107 | 36999 ft | 493 kts | 141° |
| 2026-05-09 05:34 | 29.71984 | 77.67946 | 37004 ft | 494 kts | 141° |
| 2026-05-09 05:35 | 29.66566 | 77.72783 | 36991 ft | 494 kts | 141° |
| 2026-05-09 05:35 | 29.61140 | 77.77622 | 36993 ft | 494 kts | 141° |
| 2026-05-09 05:36 | 29.55700 | 77.82469 | 36986 ft | 495 kts | 141° |
| 2026-05-09 05:36 | 29.50252 | 77.87317 | 36992 ft | 495 kts | 141° |
| 2026-05-09 05:37 | 29.44814 | 77.92146 | 36987 ft | 496 kts | 141° |
| 2026-05-09 05:37 | 29.39377 | 77.96971 | 36994 ft | 496 kts | 141° |
| 2026-05-09 05:38 | 29.34466 | 78.01325 | 36982 ft | 496 kts | 141° |
| 2026-05-09 05:38 | 29.31021 | 78.04374 | 36989 ft | 495 kts | 142° |
| 2026-05-09 05:39 | 29.28349 | 78.06737 | 36981 ft | 495 kts | 142° |
| 2026-05-09 05:39 | 29.24174 | 78.10426 | 36977 ft | 494 kts | 142° |
| 2026-05-09 05:40 | 29.19371 | 78.14663 | 36962 ft | 492 kts | 142° |
| 2026-05-09 05:41 | 29.13981 | 78.19415 | 36961 ft | 491 kts | 142° |
| 2026-05-09 05:41 | 29.08556 | 78.24193 | 36963 ft | 489 kts | 142° |
| 2026-05-09 05:42 | 29.03157 | 78.28939 | 36952 ft | 489 kts | 142° |
| 2026-05-09 05:42 | 28.97774 | 78.33664 | 36955 ft | 489 kts | 142° |
| 2026-05-09 05:43 | 28.92397 | 78.38378 | 36955 ft | 489 kts | 142° |
| 2026-05-09 05:43 | 28.86980 | 78.43124 | 36956 ft | 490 kts | 142° |
| 2026-05-09 05:44 | 28.81579 | 78.47845 | 36949 ft | 491 kts | 143° |
| 2026-05-09 05:44 | 28.76150 | 78.52587 | 36947 ft | 492 kts | 143° |
| 2026-05-09 05:45 | 28.70732 | 78.57312 | 36942 ft | 493 kts | 143° |
| 2026-05-09 05:45 | 28.65261 | 78.62076 | 36947 ft | 494 kts | 143° |
| 2026-05-09 05:46 | 28.59818 | 78.66809 | 36946 ft | 495 kts | 143° |
| 2026-05-09 05:46 | 28.54328 | 78.71582 | 36937 ft | 495 kts | 143° |
| 2026-05-09 05:47 | 28.48853 | 78.76332 | 36920 ft | 495 kts | 143° |
| 2026-05-09 05:47 | 28.43641 | 78.81406 | 36929 ft | 494 kts | 135° |
| 2026-05-09 05:48 | 28.38845 | 78.86965 | 36917 ft | 494 kts | 134° |
| 2026-05-09 05:48 | 28.34066 | 78.92561 | 36922 ft | 493 kts | 134° |
| 2026-05-09 05:49 | 28.29233 | 78.98114 | 36916 ft | 492 kts | 135° |
| 2026-05-09 05:49 | 28.24416 | 79.03590 | 36911 ft | 491 kts | 135° |
| 2026-05-09 05:50 | 28.19594 | 79.09054 | 36918 ft | 490 kts | 135° |
| 2026-05-09 05:50 | 28.14782 | 79.14509 | 36923 ft | 490 kts | 135° |
| 2026-05-09 05:51 | 28.10763 | 79.19058 | 36919 ft | 489 kts | 135° |
| 2026-05-09 05:51 | 28.05943 | 79.24509 | 36916 ft | 488 kts | 135° |
| 2026-05-09 05:52 | 28.01155 | 79.29915 | 36917 ft | 487 kts | 136° |
| 2026-05-09 05:52 | 27.96376 | 79.35305 | 36906 ft | 486 kts | 136° |
| 2026-05-09 05:53 | 27.91575 | 79.40712 | 36906 ft | 486 kts | 136° |
| 2026-05-09 05:53 | 27.86802 | 79.46081 | 36908 ft | 485 kts | 136° |
| 2026-05-09 05:54 | 27.82024 | 79.51449 | 36909 ft | 485 kts | 136° |
| 2026-05-09 05:54 | 27.77226 | 79.56832 | 36913 ft | 485 kts | 136° |
| 2026-05-09 05:55 | 27.72458 | 79.62176 | 36917 ft | 485 kts | 136° |
| 2026-05-09 05:55 | 27.67740 | 79.67668 | 36910 ft | 486 kts | 132° |
| 2026-05-09 05:56 | 27.63385 | 79.73491 | 36920 ft | 486 kts | 130° |
| 2026-05-09 05:56 | 27.59098 | 79.79346 | 36919 ft | 486 kts | 130° |
| 2026-05-09 05:57 | 27.54770 | 79.85194 | 36911 ft | 486 kts | 131° |
| 2026-05-09 05:57 | 27.50400 | 79.91043 | 36925 ft | 487 kts | 131° |
| 2026-05-09 05:58 | 27.46054 | 79.96836 | 36923 ft | 487 kts | 131° |
| 2026-05-09 05:58 | 27.41674 | 80.02669 | 36918 ft | 487 kts | 132° |
| 2026-05-09 05:59 | 27.37305 | 80.08483 | 36917 ft | 487 kts | 132° |
| 2026-05-09 05:59 | 27.32910 | 80.14325 | 36920 ft | 488 kts | 132° |
| 2026-05-09 06:00 | 27.28533 | 80.20131 | 36905 ft | 488 kts | 132° |
| 2026-05-09 06:00 | 27.24153 | 80.25939 | 36906 ft | 488 kts | 132° |
| 2026-05-09 06:01 | 27.19739 | 80.31782 | 36907 ft | 488 kts | 132° |
| 2026-05-09 06:01 | 27.15352 | 80.37581 | 36906 ft | 489 kts | 132° |
| 2026-05-09 06:02 | 27.10948 | 80.43395 | 36919 ft | 490 kts | 132° |
| 2026-05-09 06:02 | 27.06524 | 80.49226 | 36912 ft | 491 kts | 132° |
| 2026-05-09 06:03 | 27.02096 | 80.55058 | 36925 ft | 492 kts | 132° |
| 2026-05-09 06:03 | 26.97630 | 80.60929 | 36915 ft | 493 kts | 132° |
| 2026-05-09 06:04 | 26.93192 | 80.66758 | 36928 ft | 494 kts | 133° |
| 2026-05-09 06:04 | 26.88718 | 80.72628 | 36915 ft | 494 kts | 133° |
| 2026-05-09 06:05 | 26.84258 | 80.78470 | 36915 ft | 495 kts | 133° |
| 2026-05-09 06:05 | 26.79776 | 80.84334 | 36911 ft | 495 kts | 133° |
| 2026-05-09 06:06 | 26.77833 | 80.87468 | 36895 ft | 498 kts | 117° |
| 2026-05-09 06:06 | 26.76681 | 80.91131 | 36933 ft | 499 kts | 102° |
| 2026-05-09 06:06 | 26.76361 | 80.95012 | 36905 ft | 499 kts | 85° |
| 2026-05-09 06:06 | 26.76744 | 80.98835 | 36946 ft | 497 kts | 81° |
| 2026-05-09 06:07 | 26.77701 | 81.06482 | 36922 ft | 497 kts | 81° |
| 2026-05-09 06:07 | 26.78630 | 81.14179 | 36904 ft | 497 kts | 82° |
| 2026-05-09 06:08 | 26.79492 | 81.21850 | 36916 ft | 497 kts | 82° |
| 2026-05-09 06:08 | 26.80327 | 81.29535 | 36921 ft | 498 kts | 83° |
| 2026-05-09 06:09 | 26.81157 | 81.37227 | 36919 ft | 498 kts | 83° |
| 2026-05-09 06:09 | 26.81987 | 81.44916 | 36910 ft | 498 kts | 83° |
| 2026-05-09 06:10 | 26.82814 | 81.52618 | 36917 ft | 499 kts | 83° |
| 2026-05-09 06:10 | 26.83636 | 81.60314 | 36918 ft | 500 kts | 83° |
| 2026-05-09 06:11 | 26.84462 | 81.68079 | 36892 ft | 501 kts | 83° |
| 2026-05-09 06:11 | 26.85279 | 81.75810 | 36890 ft | 501 kts | 83° |
| 2026-05-09 06:12 | 26.86091 | 81.83534 | 36887 ft | 501 kts | 83° |
| 2026-05-09 06:12 | 26.86906 | 81.91313 | 36892 ft | 502 kts | 83° |
| 2026-05-09 06:13 | 26.87712 | 81.99067 | 36890 ft | 501 kts | 83° |
| 2026-05-09 06:13 | 26.88514 | 82.06820 | 36881 ft | 502 kts | 84° |
| 2026-05-09 06:14 | 26.89312 | 82.14568 | 36891 ft | 501 kts | 84° |
| 2026-05-09 06:14 | 26.90105 | 82.22322 | 36890 ft | 502 kts | 84° |
| 2026-05-09 06:15 | 26.90895 | 82.30072 | 36889 ft | 502 kts | 84° |
| 2026-05-09 06:15 | 26.91683 | 82.37844 | 36892 ft | 502 kts | 84° |
| 2026-05-09 06:16 | 26.92468 | 82.45647 | 36888 ft | 502 kts | 84° |
| 2026-05-09 06:16 | 26.93245 | 82.53407 | 36888 ft | 502 kts | 84° |
| 2026-05-09 06:17 | 26.94024 | 82.61214 | 36904 ft | 502 kts | 84° |
| 2026-05-09 06:17 | 26.94788 | 82.68943 | 36901 ft | 501 kts | 85° |
| 2026-05-09 06:18 | 26.95554 | 82.76729 | 36914 ft | 501 kts | 85° |
| 2026-05-09 06:18 | 26.96311 | 82.84468 | 36912 ft | 501 kts | 85° |
| 2026-05-09 06:19 | 26.97067 | 82.92227 | 36928 ft | 501 kts | 85° |
| 2026-05-09 06:19 | 26.97822 | 83.00019 | 36938 ft | 502 kts | 85° |
| 2026-05-09 06:20 | 26.98601 | 83.07780 | 36938 ft | 503 kts | 84° |
| 2026-05-09 06:20 | 26.99402 | 83.15589 | 36933 ft | 503 kts | 85° |
| 2026-05-09 06:21 | 27.00197 | 83.23375 | 36938 ft | 503 kts | 85° |
| 2026-05-09 06:21 | 27.00983 | 83.31162 | 36933 ft | 504 kts | 85° |
| 2026-05-09 06:22 | 27.01762 | 83.38950 | 36941 ft | 504 kts | 85° |
| 2026-05-09 06:22 | 27.02542 | 83.46787 | 36939 ft | 505 kts | 85° |
| 2026-05-09 06:23 | 27.03316 | 83.54617 | 36939 ft | 505 kts | 85° |
| 2026-05-09 06:23 | 27.04084 | 83.62431 | 36930 ft | 506 kts | 85° |
| 2026-05-09 06:24 | 27.04854 | 83.70309 | 36933 ft | 506 kts | 85° |
| 2026-05-09 06:24 | 27.05617 | 83.78137 | 36929 ft | 506 kts | 85° |
| 2026-05-09 06:25 | 27.06371 | 83.85947 | 36927 ft | 506 kts | 85° |
| 2026-05-09 06:25 | 27.07126 | 83.93815 | 36932 ft | 505 kts | 85° |
| 2026-05-09 06:26 | 27.07875 | 84.01652 | 36929 ft | 506 kts | 85° |
| 2026-05-09 06:26 | 27.08622 | 84.09518 | 36910 ft | 505 kts | 86° |
| 2026-05-09 06:27 | 27.09360 | 84.17341 | 36931 ft | 506 kts | 86° |
| 2026-05-09 06:27 | 27.10097 | 84.25194 | 36936 ft | 506 kts | 86° |
| 2026-05-09 06:28 | 27.10829 | 84.33034 | 36942 ft | 506 kts | 86° |
| 2026-05-09 06:28 | 27.11556 | 84.40882 | 36951 ft | 506 kts | 86° |
| 2026-05-09 06:29 | 27.12281 | 84.48773 | 36966 ft | 507 kts | 86° |
| 2026-05-09 06:29 | 27.13002 | 84.56618 | 36974 ft | 507 kts | 86° |
| 2026-05-09 06:30 | 27.13721 | 84.64520 | 36988 ft | 508 kts | 86° |
| 2026-05-09 06:30 | 27.14394 | 84.72406 | 36999 ft | 508 kts | 87° |
| 2026-05-09 06:31 | 27.15000 | 84.80280 | 37011 ft | 509 kts | 87° |
| 2026-05-09 06:31 | 27.15620 | 84.88233 | 37036 ft | 510 kts | 87° |
| 2026-05-09 06:32 | 27.17037 | 84.95976 | 37054 ft | 513 kts | 62° |
| 2026-05-09 06:32 | 27.18959 | 84.99345 | 37056 ft | 511 kts | 48° |
| 2026-05-09 06:33 | 27.24457 | 85.04256 | 37077 ft | 503 kts | 28° |
| 2026-05-09 06:33 | 27.30424 | 85.08373 | 37082 ft | 504 kts | 28° |
| 2026-05-09 06:34 | 27.39346 | 85.14648 | 37105 ft | 506 kts | 29° |
| 2026-05-09 06:34 | 27.45282 | 85.18925 | 37109 ft | 507 kts | 29° |
| 2026-05-09 06:35 | 27.51233 | 85.23223 | 37124 ft | 507 kts | 29° |
| 2026-05-09 06:35 | 27.57170 | 85.27505 | 37125 ft | 507 kts | 29° |
| 2026-05-09 06:36 | 27.62744 | 85.32297 | 37119 ft | 512 kts | 51° |
| 2026-05-09 06:36 | 27.64599 | 85.35731 | 37139 ft | 511 kts | 68° |
| 2026-05-09 06:36 | 27.65603 | 85.39525 | 37144 ft | 508 kts | 83° |
| 2026-05-09 06:37 | 27.65816 | 85.43482 | 37119 ft | 502 kts | 99° |
| 2026-05-09 06:37 | 27.65264 | 85.47347 | 37149 ft | 496 kts | 106° |
| 2026-05-09 06:37 | 27.63733 | 85.54909 | 37137 ft | 496 kts | 108° |
| 2026-05-09 06:38 | 27.62171 | 85.62475 | 37128 ft | 497 kts | 107° |
| 2026-05-09 06:38 | 27.60684 | 85.70078 | 37123 ft | 498 kts | 106° |
| 2026-05-09 06:39 | 27.59215 | 85.77739 | 37133 ft | 499 kts | 106° |